This is the latest recevied weather packets stored in our database for station/object OK1KZE-6. If no packets are shown the sender has not sent any weather packets the latest 10 day(s).
| Time | Temp. | Humidity | Pressure | Rain* | Wind** | Luminosity | Snow |
|---|---|---|---|---|---|---|---|
| 1777360509 | 8.89° C | 58% | 1022.6 hPa | - | - | - | - |
| 1777360208 | 8.89° C | 61% | 1022.7 hPa | - | - | - | - |
| 1777359608 | 8.33° C | 61% | 1022.4 hPa | - | - | - | - |
| 1777359308 | 7.78° C | 62% | 1022.5 hPa | - | - | - | - |
| 1777359008 | 7.78° C | 60% | 1022.5 hPa | - | - | - | - |
| 1777358708 | 7.78° C | 60% | 1022.5 hPa | - | - | - | - |
| 1777358409 | 8.33° C | 58% | 1022.5 hPa | - | - | - | - |
| 1777358108 | 7.22° C | 62% | 1022.4 hPa | - | - | - | - |
| 1777357809 | 7.22° C | 61% | 1022.5 hPa | - | - | - | - |
| 1777357508 | 7.22° C | 61% | 1022.4 hPa | - | - | - | - |
| 1777357208 | 7.22° C | 61% | 1022.4 hPa | - | - | - | - |
| 1777356908 | 6.67° C | 62% | 1022.4 hPa | - | - | - | - |
| 1777356608 | 6.67° C | 61% | 1022.3 hPa | - | - | - | - |
| 1777356308 | 6.67° C | 61% | 1022.6 hPa | - | - | - | - |
| 1777356008 | 6.67° C | 61% | 1022.5 hPa | - | - | - | - |
| 1777355707 | 6.67° C | 60% | 1022.4 hPa | - | - | - | - |
| 1777355409 | 6.67° C | 60% | 1022.5 hPa | - | - | - | - |
| 1777355107 | 6.67° C | 59% | 1022.3 hPa | - | - | - | - |
| 1777354808 | 6.11° C | 59% | 1022.3 hPa | - | - | - | - |
| 1777354508 | 6.67° C | 59% | 1022.4 hPa | - | - | - | - |
| 1777354208 | 6.67° C | 59% | 1022.5 hPa | - | - | - | - |
| 1777353908 | 6.11° C | 59% | 1022.1 hPa | - | - | - | - |
| 1777353608 | 6.67° C | 59% | 1022.6 hPa | - | - | - | - |
| 1777353309 | 6.67° C | 59% | 1022.6 hPa | - | - | - | - |
| 1777353008 | 6.67° C | 58% | 1022.6 hPa | - | - | - | - |
* Rain since midnight (hover to see other rain measurements)
** Current wind speed in m/s (hover to see current wind gust speed)